Time;durP1;ratioP1;P1;durP2;ratioP2;P2;SDS_P1;SDS_P2;PMS_P1;PMS_P2;Temp;Humidity;BMP_temperature;BMP_pressure;BME280_temperature;BME280_humidity;BME280_pressure;Samples;Min_cycle;Max_cycle;Signal;HPM_P1;HPM_P2
2021/12/11 00:01:16;;;;;;;0.70;0.70;;;;;;;1.96;100.00;95241.78;5033828;28;20278;-84
2021/12/11 00:03:46;;;;;;;3.23;1.00;;;;;;;1.97;100.00;95238.88;5025782;28;20209;-84
2021/12/11 00:06:17;;;;;;;0.90;0.80;;;;;;;2.01;100.00;95242.78;5033227;28;20298;-85
2021/12/11 00:08:51;;;;;;;0.73;0.70;;;;;;;2.08;100.00;95256.91;5029380;28;20274;-84
2021/12/11 00:11:23;;;;;;;0.83;0.80;;;;;;;2.12;100.00;95260.81;5021611;28;20226;-84
2021/12/11 00:13:55;;;;;;;2.50;0.80;;;;;;;2.19;100.00;95261.63;5024678;28;20333;-84
2021/12/11 00:16:23;;;;;;;0.77;0.73;;;;;;;2.27;100.00;95274.75;5029642;28;20214;-85
2021/12/11 00:18:52;;;;;;;1.80;0.77;;;;;;;2.25;100.00;95266.13;5034808;28;20214;-84
2021/12/11 00:21:20;;;;;;;0.73;0.70;;;;;;;2.26;100.00;95272.28;5024856;28;20229;-84
2021/12/11 00:23:52;;;;;;;0.70;0.70;;;;;;;2.14;100.00;95274.72;5036242;28;20202;-84
2021/12/11 00:26:26;;;;;;;1.63;1.20;;;;;;;2.15;100.00;95288.88;5018818;28;20275;-85
2021/12/11 00:28:53;;;;;;;3.90;1.73;;;;;;;2.04;100.00;95273.50;5032393;28;20230;-84
2021/12/11 00:31:21;;;;;;;3.67;1.63;;;;;;;1.96;100.00;95285.16;5023772;28;20201;-84
2021/12/11 00:33:50;;;;;;;2.47;1.40;;;;;;;1.91;100.00;95290.28;5026720;28;20215;-84
2021/12/11 00:36:21;;;;;;;3.37;1.80;;;;;;;1.83;100.00;95291.28;5028428;28;20227;-84
2021/12/11 00:38:52;;;;;;;1.57;1.30;;;;;;;1.78;100.00;95285.75;5041469;28;20228;-85
2021/12/11 00:41:24;;;;;;;2.17;1.40;;;;;;;1.76;100.00;95284.31;5026075;28;20277;-85
2021/12/11 00:44:00;;;;;;;2.53;1.30;;;;;;;1.75;100.00;95277.34;5044036;28;20267;-84
2021/12/11 00:46:31;;;;;;;2.60;1.43;;;;;;;1.70;100.00;95285.91;5026381;28;20207;-84
2021/12/11 00:49:08;;;;;;;2.03;1.40;;;;;;;1.69;100.00;95291.47;5025511;28;20217;-84
2021/12/11 00:51:35;;;;;;;2.67;1.60;;;;;;;1.70;100.00;95298.44;5025031;28;20198;-85
2021/12/11 00:54:03;;;;;;;1.00;1.00;;;;;;;1.76;100.00;95308.28;5043623;28;20200;-84
2021/12/11 00:56:34;;;;;;;0.97;0.93;;;;;;;1.69;100.00;95304.78;5028569;28;20202;-85
2021/12/11 00:59:08;;;;;;;1.20;1.10;;;;;;;1.65;100.00;95295.53;5028538;28;20243;-85
2021/12/11 01:01:39;;;;;;;1.37;1.10;;;;;;;1.67;100.00;95314.78;5042445;28;20235;-84
2021/12/11 01:04:16;;;;;;;1.33;1.23;;;;;;;1.64;100.00;95320.50;5032052;28;20202;-85
2021/12/11 01:07:16;;;;;;;2.20;1.20;;;;;;;1.69;100.00;95329.53;5101836;27;20598;-84
2021/12/11 01:09:48;;;;;;;2.43;1.40;;;;;;;1.61;100.00;95321.75;5089501;28;20199;-84
2021/12/11 01:12:22;;;;;;;3.57;1.60;;;;;;;1.57;100.00;95331.13;5091094;28;20213;-84
2021/12/11 01:14:54;;;;;;;1.93;1.00;;;;;;;1.55;100.00;95324.34;5078655;28;20235;-83
2021/12/11 01:17:30;;;;;;;3.60;1.17;;;;;;;1.51;100.00;95332.75;5088166;28;20306;-84
2021/12/11 01:20:01;;;;;;;0.97;0.97;;;;;;;1.56;100.00;95341.97;5091048;28;20205;-84
2021/12/11 01:22:35;;;;;;;1.20;1.00;;;;;;;1.51;100.00;95340.75;5083924;28;20208;-84
2021/12/11 01:25:08;;;;;;;2.27;1.27;;;;;;;1.54;100.00;95352.78;5098523;28;20272;-84
2021/12/11 01:27:37;;;;;;;3.13;1.00;;;;;;;1.57;100.00;95348.94;5084315;28;20207;-83
2021/12/11 01:30:07;;;;;;;1.10;1.00;;;;;;;1.62;100.00;95357.13;5079168;28;20282;-84
2021/12/11 01:32:36;;;;;;;2.00;1.27;;;;;;;1.63;100.00;95366.75;5084473;28;20200;-84
2021/12/11 01:35:09;;;;;;;2.30;1.00;;;;;;;1.64;100.00;95371.06;5082830;28;20195;-84
2021/12/11 01:37:39;;;;;;;1.70;1.33;;;;;;;1.66;100.00;95377.00;5082682;28;20211;-84
2021/12/11 01:40:10;;;;;;;1.53;1.00;;;;;;;1.57;100.00;95376.34;5089510;28;20195;-84
2021/12/11 01:42:39;;;;;;;1.20;1.10;;;;;;;1.52;100.00;95390.28;5088165;28;20207;-84
2021/12/11 01:45:11;;;;;;;1.67;1.20;;;;;;;1.52;100.00;95390.28;5085837;28;20227;-84
2021/12/11 01:47:40;;;;;;;4.10;1.10;;;;;;;1.53;100.00;95397.19;5080392;28;20205;-84
2021/12/11 01:50:13;;;;;;;1.43;1.00;;;;;;;1.48;100.00;95391.66;5076015;28;20205;-84
2021/12/11 01:52:47;;;;;;;1.27;0.93;;;;;;;1.48;100.00;95396.97;5088556;28;20204;-84
2021/12/11 01:55:22;;;;;;;2.00;1.03;;;;;;;1.46;100.00;95398.19;5071498;28;20300;-84
2021/12/11 01:57:51;;;;;;;1.40;1.00;;;;;;;1.49;100.00;95403.94;5084357;28;20211;-84
2021/12/11 02:00:26;;;;;;;1.23;1.10;;;;;;;1.46;100.00;95391.03;5072767;28;20204;-84
2021/12/11 02:02:55;;;;;;;1.10;1.00;;;;;;;1.52;100.00;95403.56;5083919;28;20212;-83
2021/12/11 02:05:25;;;;;;;1.83;0.90;;;;;;;1.57;100.00;95407.47;5077883;28;20242;-84
2021/12/11 02:07:57;;;;;;;1.70;0.90;;;;;;;1.58;100.00;95401.13;5074925;28;20242;-84
2021/12/11 02:10:28;;;;;;;2.70;1.00;;;;;;;1.57;100.00;95408.28;5085898;28;20200;-84
2021/12/11 02:12:57;;;;;;;1.30;1.00;;;;;;;1.63;100.00;95419.97;5099356;28;20229;-84
2021/12/11 02:15:33;;;;;;;1.60;1.00;;;;;;;1.56;100.00;95416.44;5089441;28;20946;-84
2021/12/11 02:18:09;;;;;;;0.93;0.90;;;;;;;1.58;100.00;95420.56;5075830;28;20210;-84
2021/12/11 02:20:41;;;;;;;1.73;1.00;;;;;;;1.59;100.00;95427.53;5067229;28;20220;-84
2021/12/11 02:23:12;;;;;;;1.23;1.00;;;;;;;1.58;100.00;95433.06;5076648;28;20201;-84
2021/12/11 02:25:44;;;;;;;1.47;1.13;;;;;;;1.63;100.00;95443.91;5060308;28;20220;-84
2021/12/11 02:28:15;;;;;;;1.13;1.00;;;;;;;1.63;100.00;95441.25;5065017;28;20302;-84
2021/12/11 02:30:46;;;;;;;1.43;1.00;;;;;;;1.62;100.00;95437.75;5061218;28;20264;-84
2021/12/11 02:33:19;;;;;;;1.27;1.10;;;;;;;1.61;100.00;95445.97;5060507;28;20212;-84
2021/12/11 02:35:51;;;;;;;1.23;0.90;;;;;;;1.60;100.00;95437.16;5056596;28;20214;-84
2021/12/11 02:38:22;;;;;;;0.80;0.80;;;;;;;1.60;100.00;95441.66;5055812;28;20240;-84
2021/12/11 02:40:56;;;;;;;0.70;0.70;;;;;;;1.50;100.00;95437.53;5062822;28;20208;-84
2021/12/11 02:43:27;;;;;;;1.43;1.17;;;;;;;1.49;100.00;95443.84;5064147;28;20213;-84
2021/12/11 02:46:04;;;;;;;1.13;1.03;;;;;;;1.50;100.00;95436.69;5058658;28;20220;-84
2021/12/11 02:48:35;;;;;;;2.77;0.90;;;;;;;1.51;100.00;95449.81;5058249;28;20204;-84
2021/12/11 02:51:08;;;;;;;1.57;0.80;;;;;;;1.52;100.00;95451.44;5059638;28;20203;-84
2021/12/11 02:53:40;;;;;;;0.70;0.70;;;;;;;1.53;100.00;95452.28;5060455;28;20219;-84
2021/12/11 02:56:13;;;;;;;0.70;0.70;;;;;;;1.59;100.00;95469.28;5056239;28;20277;-84
2021/12/11 02:58:44;;;;;;;0.70;0.70;;;;;;;1.59;100.00;95466.63;5065314;28;20211;-84
2021/12/11 03:01:21;;;;;;;1.03;0.90;;;;;;;1.62;100.00;95463.56;5063369;28;20485;-84
2021/12/11 03:03:56;;;;;;;1.33;0.70;;;;;;;1.61;100.00;95475.25;5062192;28;20211;-84
2021/12/11 03:06:27;;;;;;;0.70;0.70;;;;;;;1.57;100.00;95481.94;5054606;28;20243;-84
2021/12/11 03:08:59;;;;;;;0.83;0.70;;;;;;;1.58;100.00;95494.25;5059487;28;20201;-84
2021/12/11 03:11:29;;;;;;;1.27;0.73;;;;;;;1.58;100.00;95496.91;5057980;28;20204;-84
2021/12/11 03:13:58;;;;;;;1.17;0.93;;;;;;;1.66;100.00;95496.75;5055046;28;20212;-84
2021/12/11 03:16:28;;;;;;;0.80;0.70;;;;;;;1.62;100.00;95498.13;5061304;28;20197;-84
2021/12/11 03:18:58;;;;;;;1.07;0.80;;;;;;;1.59;100.00;95493.22;5063088;28;20241;-84
2021/12/11 03:21:25;;;;;;;4.70;1.00;;;;;;;1.57;100.00;95495.25;5059632;28;20289;-84
2021/12/11 03:23:53;;;;;;;1.60;0.70;;;;;;;1.55;100.00;95489.31;5052347;28;20213;-84
2021/12/11 03:26:22;;;;;;;1.03;0.80;;;;;;;1.58;100.00;95503.06;5061182;28;20218;-84
2021/12/11 03:28:49;;;;;;;2.03;0.80;;;;;;;1.53;100.00;95500.97;5061208;28;20216;-84
2021/12/11 03:31:17;;;;;;;1.73;0.70;;;;;;;1.59;100.00;95517.19;5055236;28;20217;-84
2021/12/11 03:33:47;;;;;;;0.90;0.90;;;;;;;1.52;100.00;95515.31;5060995;28;20258;-85
2021/12/11 03:36:18;;;;;;;1.13;0.90;;;;;;;1.57;100.00;95516.53;5053201;28;20208;-84
2021/12/11 03:38:49;;;;;;;1.03;0.97;;;;;;;1.53;100.00;95510.81;5059127;28;20295;-84
2021/12/11 03:41:17;;;;;;;1.43;0.80;;;;;;;1.54;100.00;95523.06;5052400;28;20307;-84
2021/12/11 03:43:46;;;;;;;2.00;0.97;;;;;;;1.64;100.00;95534.19;5051570;28;20213;-84
2021/12/11 03:46:14;;;;;;;3.27;0.90;;;;;;;1.58;100.00;95539.47;5058961;28;20483;-84
2021/12/11 03:48:44;;;;;;;2.23;0.93;;;;;;;1.56;100.00;95546.81;5058821;28;20207;-84
2021/12/11 03:51:15;;;;;;;1.63;0.90;;;;;;;1.55;100.00;95547.84;5060710;28;20213;-84
2021/12/11 03:53:42;;;;;;;1.70;1.10;;;;;;;1.55;100.00;95548.66;5056310;28;20301;-84
2021/12/11 03:56:13;;;;;;;1.00;0.90;;;;;;;1.52;100.00;95546.41;5054327;28;20220;-84
2021/12/11 03:58:48;;;;;;;0.70;0.70;;;;;;;1.50;100.00;95543.09;5062512;28;20229;-84
2021/12/11 04:01:22;;;;;;;0.80;0.80;;;;;;;1.57;100.00;95546.63;5057471;28;20252;-84
2021/12/11 04:03:51;;;;;;;1.47;1.00;;;;;;;1.60;100.00;95553.41;5061774;28;20222;-84
2021/12/11 04:06:19;;;;;;;0.93;0.93;;;;;;;1.60;100.00;95559.56;5060760;28;20322;-84
2021/12/11 04:08:48;;;;;;;1.67;0.70;;;;;;;1.60;100.00;95556.91;5054691;28;20304;-85
2021/12/11 04:11:19;;;;;;;1.20;0.80;;;;;;;1.56;100.00;95557.47;5060731;28;20229;-84
2021/12/11 04:13:48;;;;;;;1.00;1.00;;;;;;;1.54;100.00;95555.00;5059044;28;20201;-84
2021/12/11 04:16:18;;;;;;;1.53;0.90;;;;;;;1.48;100.00;95556.59;5061290;28;20243;-85
2021/12/11 04:18:45;;;;;;;1.60;0.90;;;;;;;1.53;100.00;95564.00;5049109;28;20522;-84
2021/12/11 04:21:13;;;;;;;0.80;0.80;;;;;;;1.60;100.00;95572.03;5049434;28;20301;-84
2021/12/11 04:23:41;;;;;;;0.70;0.70;;;;;;;1.63;100.00;95571.63;5053902;28;20206;-85
2021/12/11 04:26:08;;;;;;;0.70;0.70;;;;;;;1.65;100.00;95582.91;5061895;28;20229;-85
2021/12/11 04:28:38;;;;;;;1.53;0.80;;;;;;;1.65;100.00;95589.06;5050431;28;20208;-84
2021/12/11 04:31:08;;;;;;;1.17;0.93;;;;;;;1.59;100.00;95579.19;5049638;28;20293;-84
2021/12/11 04:33:40;;;;;;;1.13;0.80;;;;;;;1.63;100.00;95595.56;5061516;28;20300;-84
2021/12/11 04:36:11;;;;;;;0.70;0.70;;;;;;;1.65;100.00;95594.38;5052764;28;20285;-85
2021/12/11 04:38:40;;;;;;;0.77;0.70;;;;;;;1.60;100.00;95590.66;5056193;28;20226;-84
2021/12/11 04:41:08;;;;;;;2.53;0.73;;;;;;;1.56;100.00;95597.38;5066218;28;20218;-84
2021/12/11 04:43:36;;;;;;;2.00;1.30;;;;;;;1.52;100.00;95603.09;5054243;28;20216;-84
2021/12/11 04:46:07;;;;;;;0.73;0.73;;;;;;;1.60;100.00;95609.28;5057158;28;20228;-84
2021/12/11 04:48:50;;;;;;;0.70;0.70;;;;;;;1.57;100.00;95601.69;5057632;28;20288;-84
2021/12/11 04:51:24;;;;;;;1.13;0.70;;;;;;;1.52;100.00;95610.25;5057650;28;20305;-84
2021/12/11 04:54:02;;;;;;;1.47;0.90;;;;;;;1.53;100.00;95617.22;5057294;28;20224;-84
2021/12/11 04:56:54;;;;;;;1.73;1.10;;;;;;;1.53;100.00;95615.34;5064185;28;20205;-84
2021/12/11 04:59:41;;;;;;;0.90;0.90;;;;;;;1.57;100.00;95620.31;5055265;28;20211;-84
2021/12/11 05:02:36;;;;;;;1.63;1.00;;;;;;;1.55;100.00;95624.97;5056660;28;20232;-84
2021/12/11 05:05:17;;;;;;;5.13;1.57;;;;;;;1.60;100.00;95622.59;5058929;28;20340;-85
2021/12/11 05:07:59;;;;;;;2.57;1.03;;;;;;;1.61;100.00;95629.56;5057964;28;20224;-84
2021/12/11 05:10:36;;;;;;;2.00;1.67;;;;;;;1.59;100.00;95634.25;5054197;28;20206;-84
2021/12/11 05:13:04;;;;;;;2.27;0.80;;;;;;;1.56;100.00;95635.44;5053224;28;20280;-84
2021/12/11 05:15:34;;;;;;;1.03;0.70;;;;;;;1.60;100.00;95641.22;5062636;28;20200;-84
2021/12/11 05:18:03;;;;;;;2.07;1.23;;;;;;;1.59;100.00;95652.88;5055657;28;20205;-85
2021/12/11 05:20:33;;;;;;;1.40;0.80;;;;;;;1.55;100.00;95641.78;5056885;28;20211;-83
2021/12/11 05:23:01;;;;;;;1.87;1.27;;;;;;;1.61;100.00;95649.00;5052594;28;20213;-83
2021/12/11 05:25:29;;;;;;;1.77;1.00;;;;;;;1.64;100.00;95645.13;5054400;28;20228;-85
2021/12/11 05:27:57;;;;;;;1.00;0.90;;;;;;;1.61;100.00;95656.16;5055084;28;20235;-84
2021/12/11 05:30:27;;;;;;;1.80;1.00;;;;;;;1.64;100.00;95658.44;5051531;28;20207;-84
2021/12/11 05:32:58;;;;;;;1.13;1.00;;;;;;;1.51;100.00;95641.34;5060545;28;20315;-85
2021/12/11 05:35:28;;;;;;;2.23;1.20;;;;;;;1.55;100.00;95663.06;5063266;28;20204;-84
2021/12/11 05:37:56;;;;;;;1.77;1.10;;;;;;;1.55;100.00;95664.91;5057435;28;20241;-84
2021/12/11 05:40:26;;;;;;;3.43;1.00;;;;;;;1.55;100.00;95672.88;5056366;28;20210;-84
2021/12/11 05:42:53;;;;;;;0.93;0.90;;;;;;;1.53;100.00;95679.22;5053900;28;20202;-83
2021/12/11 05:45:20;;;;;;;2.87;1.10;;;;;;;1.55;100.00;95679.03;5066437;28;20251;-84
2021/12/11 05:47:49;;;;;;;1.00;0.87;;;;;;;1.50;100.00;95674.28;5050947;28;20222;-84
2021/12/11 05:50:21;;;;;;;1.77;1.00;;;;;;;1.52;100.00;95682.91;5051760;28;20232;-84
2021/12/11 05:52:49;;;;;;;1.30;1.20;;;;;;;1.47;100.00;95682.63;5060259;28;20219;-84
2021/12/11 05:55:19;;;;;;;1.20;1.00;;;;;;;1.56;100.00;95695.81;5053387;28;20198;-83
2021/12/11 05:57:53;;;;;;;1.40;1.03;;;;;;;1.55;100.00;95697.66;5058295;28;20211;-84
2021/12/11 06:00:22;;;;;;;1.03;0.80;;;;;;;1.56;100.00;95707.28;5057696;28;20209;-84
2021/12/11 06:02:50;;;;;;;0.70;0.70;;;;;;;1.56;100.00;95707.28;5061503;28;20212;-84
2021/12/11 06:05:17;;;;;;;2.20;1.10;;;;;;;1.56;100.00;95709.13;5064067;28;20265;-84
2021/12/11 06:07:44;;;;;;;1.00;0.80;;;;;;;1.53;100.00;95708.47;5060419;28;20240;-85
2021/12/11 06:10:15;;;;;;;1.00;0.90;;;;;;;1.55;100.00;95712.78;5053838;28;20224;-84
2021/12/11 06:12:45;;;;;;;2.00;0.90;;;;;;;1.66;100.00;95729.06;5054756;28;20212;-84
2021/12/11 06:15:13;;;;;;;1.00;0.80;;;;;;;1.64;100.00;95728.44;5053498;28;20197;-84
2021/12/11 06:17:43;;;;;;;1.53;0.80;;;;;;;1.64;100.00;95738.25;5060245;28;20230;-83
2021/12/11 06:20:13;;;;;;;1.13;0.90;;;;;;;1.67;100.00;95719.25;5061661;28;20205;-84
2021/12/11 06:22:41;;;;;;;2.37;1.00;;;;;;;1.65;100.00;95723.94;5055512;28;20200;-84
2021/12/11 06:25:12;;;;;;;1.73;0.80;;;;;;;1.65;100.00;95724.78;5056309;28;20292;-84
2021/12/11 06:27:40;;;;;;;2.33;1.27;;;;;;;1.64;100.00;95730.28;5058812;28;20286;-84
2021/12/11 06:30:12;;;;;;;3.10;1.87;;;;;;;1.67;100.00;95751.19;5058685;28;20216;-83
2021/12/11 06:32:40;;;;;;;2.47;1.90;;;;;;;1.66;100.00;95745.03;5052967;28;20201;-83
2021/12/11 06:35:13;;;;;;;4.70;1.60;;;;;;;1.68;100.00;95752.84;5065109;28;20202;-83
2021/12/11 06:37:40;;;;;;;2.20;1.40;;;;;;;1.67;100.00;95756.50;5060246;28;20247;-84
2021/12/11 06:40:09;;;;;;;2.57;1.60;;;;;;;1.64;100.00;95759.53;5053174;28;20208;-84
2021/12/11 06:42:36;;;;;;;1.67;1.33;;;;;;;1.59;100.00;95764.63;5060734;28;20195;-84
2021/12/11 06:45:04;;;;;;;1.20;1.10;;;;;;;1.63;100.00;95764.03;5069658;28;20228;-85
2021/12/11 06:47:33;;;;;;;1.67;1.43;;;;;;;1.62;100.00;95772.22;5062987;28;20222;-84
2021/12/11 06:50:02;;;;;;;2.37;1.37;;;;;;;1.56;100.00;95775.63;5055425;28;20240;-84
2021/12/11 06:52:29;;;;;;;2.87;1.30;;;;;;;1.59;100.00;95783.25;5050932;28;20212;-84
2021/12/11 06:54:57;;;;;;;2.47;1.60;;;;;;;1.61;100.00;95790.03;5049964;28;20206;-85
2021/12/11 06:57:25;;;;;;;2.10;1.50;;;;;;;1.58;100.00;95785.09;5064509;28;20204;-84
2021/12/11 06:59:52;;;;;;;2.77;1.97;;;;;;;1.57;100.00;95790.59;5063973;28;20218;-84
2021/12/11 07:02:20;;;;;;;2.90;2.20;;;;;;;1.59;100.00;95788.56;5057948;28;20200;-84
2021/12/11 07:04:50;;;;;;;2.00;1.60;;;;;;;1.65;100.00;95795.78;5057089;28;20220;-84
2021/12/11 07:07:21;;;;;;;3.37;1.60;;;;;;;1.61;100.00;95803.34;5057344;28;20221;-83
2021/12/11 07:09:49;;;;;;;3.00;2.37;;;;;;;1.65;100.00;95806.44;5062044;28;20283;-83
2021/12/11 07:12:16;;;;;;;3.83;2.37;;;;;;;1.62;100.00;95812.13;5062837;28;20204;-83
2021/12/11 07:14:43;;;;;;;4.87;3.00;;;;;;;1.58;100.00;95816.19;5059109;28;20219;-84
2021/12/11 07:17:11;;;;;;;3.27;2.37;;;;;;;1.63;100.00;95819.09;5058076;28;20201;-84
2021/12/11 07:19:38;;;;;;;3.10;1.90;;;;;;;1.67;100.00;95831.84;5064238;28;20231;-84
2021/12/11 07:22:07;;;;;;;4.00;2.37;;;;;;;1.64;100.00;95842.03;5058106;28;20215;-83
2021/12/11 07:24:41;;;;;;;3.83;2.47;;;;;;;1.65;100.00;95849.00;5062933;28;20200;-83
2021/12/11 07:27:11;;;;;;;6.53;3.10;;;;;;;1.64;100.00;95850.84;5061031;28;20232;-84
2021/12/11 07:29:41;;;;;;;4.93;3.17;;;;;;;1.65;100.00;95852.50;5052223;28;20209;-83
2021/12/11 07:32:09;;;;;;;5.20;3.27;;;;;;;1.69;100.00;95860.94;5058960;28;20205;-83
2021/12/11 07:34:37;;;;;;;3.90;3.23;;;;;;;1.67;100.00;95861.13;5062544;28;20205;-84
2021/12/11 07:37:05;;;;;;;8.20;3.97;;;;;;;1.66;100.00;95867.47;5060702;28;20246;-84
2021/12/11 07:39:34;;;;;;;5.73;3.30;;;;;;;1.62;100.00;95868.81;5052158;28;20212;-83
2021/12/11 07:42:01;;;;;;;6.37;3.73;;;;;;;1.66;100.00;95866.63;5052559;28;20232;-84
2021/12/11 07:44:35;;;;;;;5.83;3.80;;;;;;;1.65;100.00;95873.78;5059845;28;20220;-84
2021/12/11 07:47:02;;;;;;;4.83;3.80;;;;;;;1.63;100.00;95882.97;5063251;28;20315;-83
2021/12/11 07:49:30;;;;;;;3.60;3.10;;;;;;;1.60;100.00;95878.84;5055423;28;20215;-84
2021/12/11 07:51:58;;;;;;;4.07;2.90;;;;;;;1.56;100.00;95884.72;5063593;28;20261;-84
2021/12/11 07:54:25;;;;;;;4.20;2.93;;;;;;;1.59;100.00;95892.34;5054627;28;20261;-84
2021/12/11 07:56:54;;;;;;;4.10;2.93;;;;;;;1.61;100.00;95907.13;5055574;28;20276;-83
2021/12/11 07:59:21;;;;;;;11.03;3.20;;;;;;;1.70;100.00;95921.94;5061885;28;20201;-83
2021/12/11 08:01:51;;;;;;;4.73;3.00;;;;;;;1.73;100.00;95916.25;5057375;28;20200;-83
2021/12/11 08:04:20;;;;;;;5.60;3.33;;;;;;;1.76;100.00;95915.06;5079532;28;20207;-83
2021/12/11 08:06:49;;;;;;;5.40;3.60;;;;;;;1.75;100.00;95930.22;5063670;28;20322;-84
2021/12/11 08:09:21;;;;;;;5.53;4.30;;;;;;;1.76;100.00;95931.03;5057346;28;20204;-84
2021/12/11 08:11:49;;;;;;;5.60;4.03;;;;;;;1.80;100.00;95940.28;5062096;28;20303;-85
2021/12/11 08:14:18;;;;;;;5.37;3.93;;;;;;;1.81;100.00;95944.63;5057837;28;20212;-84
2021/12/11 08:16:47;;;;;;;6.53;3.93;;;;;;;1.78;100.00;95952.97;5058198;28;20217;-84
2021/12/11 08:19:17;;;;;;;5.70;3.70;;;;;;;1.79;100.00;95951.94;5055333;28;20291;-83
2021/12/11 08:21:45;;;;;;;6.13;4.33;;;;;;;1.79;100.00;95962.59;5055310;28;20295;-84
2021/12/11 08:24:12;;;;;;;5.13;3.70;;;;;;;1.81;100.00;95968.56;5063388;28;20261;-84
2021/12/11 08:26:41;;;;;;;4.87;3.50;;;;;;;1.78;100.00;95960.97;5055295;28;20203;-83
2021/12/11 08:29:11;;;;;;;2.50;1.87;;;;;;;1.90;100.00;95978.09;5056937;28;20302;-83
2021/12/11 08:31:42;;;;;;;1.93;1.30;;;;;;;2.05;100.00;95984.22;5055321;28;20216;-83
2021/12/11 08:34:10;;;;;;;3.03;1.30;;;;;;;2.17;100.00;95987.25;5053365;28;20208;-83
2021/12/11 08:36:38;;;;;;;2.50;1.13;;;;;;;2.23;100.00;95991.81;5057263;28;20212;-84
2021/12/11 08:39:09;;;;;;;0.90;0.83;;;;;;;2.30;100.00;96000.72;5049491;28;20306;-83
2021/12/11 08:41:40;;;;;;;1.83;1.10;;;;;;;2.26;100.00;95996.78;5059857;28;20221;-84
2021/12/11 08:44:13;;;;;;;2.57;1.00;;;;;;;2.25;100.00;96003.94;5062856;28;20221;-84
2021/12/11 08:46:45;;;;;;;1.97;0.90;;;;;;;2.26;100.00;96018.91;5054996;28;20344;-84
2021/12/11 08:49:18;;;;;;;1.27;0.97;;;;;;;2.25;100.00;96006.63;5060184;28;20216;-84
2021/12/11 08:51:49;;;;;;;2.10;0.90;;;;;;;2.23;100.00;96013.97;5052572;28;20215;-84
2021/12/11 08:54:18;;;;;;;1.70;0.83;;;;;;;2.18;100.00;96015.53;5060973;28;20205;-83
2021/12/11 08:56:46;;;;;;;0.90;0.90;;;;;;;2.22;100.00;96027.47;5053922;28;20212;-83
2021/12/11 08:59:19;;;;;;;2.43;1.10;;;;;;;2.27;100.00;96035.72;5061812;28;20211;-84
2021/12/11 09:01:54;;;;;;;1.67;1.00;;;;;;;2.26;100.00;96039.41;5082370;28;20219;-84
2021/12/11 09:04:32;;;;;;;2.40;1.37;;;;;;;2.26;100.00;96036.75;5056152;28;20225;-83
2021/12/11 09:07:02;;;;;;;1.87;1.10;;;;;;;2.26;100.00;96048.22;5066022;28;20327;-83
2021/12/11 09:09:36;;;;;;;5.10;1.30;;;;;;;2.30;100.00;96056.66;5059847;28;20238;-84
2021/12/11 09:12:07;;;;;;;3.30;1.10;;;;;;;2.30;100.00;96055.84;5053746;28;20205;-84
2021/12/11 09:14:44;;;;;;;4.70;1.30;;;;;;;2.34;100.00;96067.78;5066389;28;20294;-84
2021/12/11 09:17:17;;;;;;;1.50;0.90;;;;;;;2.40;100.00;96065.19;5062687;28;20212;-84
2021/12/11 09:19:46;;;;;;;3.43;1.40;;;;;;;2.44;100.00;96063.00;5059033;28;20318;-84
2021/12/11 09:22:20;;;;;;;1.57;1.10;;;;;;;2.50;100.00;96062.22;5059962;28;20331;-84
2021/12/11 09:24:54;;;;;;;2.23;0.97;;;;;;;2.44;100.00;96058.50;5062832;28;20285;-84
2021/12/11 09:27:27;;;;;;;1.67;1.17;;;;;;;2.47;100.00;96068.75;5060620;28;20250;-82
2021/12/11 09:29:59;;;;;;;3.60;1.70;;;;;;;2.51;100.00;96063.88;5067551;28;20215;-84
2021/12/11 09:32:34;;;;;;;1.40;1.10;;;;;;;2.60;100.00;96079.59;5085637;28;20228;-84
2021/12/11 09:35:07;;;;;;;2.17;1.00;;;;;;;2.65;100.00;96081.69;5058265;28;20205;-84
2021/12/11 09:37:36;;;;;;;1.53;1.03;;;;;;;2.68;100.00;96089.31;5057148;28;20201;-83
2021/12/11 09:40:09;;;;;;;1.77;1.20;;;;;;;2.67;100.00;96095.66;5069177;28;20188;-84
2021/12/11 09:42:35;;;;;;;1.20;1.03;;;;;;;2.76;100.00;96102.53;5062230;28;20259;-83
2021/12/11 09:45:10;;;;;;;1.63;1.33;;;;;;;2.83;100.00;96092.75;5059265;28;20231;-84
2021/12/11 09:47:41;;;;;;;0.63;0.63;;;;;;;2.91;100.00;96113.16;5082087;28;20216;-83
2021/12/11 09:50:14;;;;;;;1.20;0.93;;;;;;;2.99;100.00;96115.69;5062558;28;20205;-84
2021/12/11 09:52:45;;;;;;;2.13;0.73;;;;;;;3.02;100.00;96105.50;5059539;28;20232;-84
2021/12/11 09:55:16;;;;;;;0.60;0.60;;;;;;;3.06;100.00;96107.78;5064271;28;20205;-84
2021/12/11 09:57:46;;;;;;;0.60;0.60;;;;;;;3.14;100.00;96113.00;5061775;28;20205;-84
2021/12/11 10:00:20;;;;;;;2.90;0.83;;;;;;;3.09;100.00;96110.06;5057822;28;20209;-84
2021/12/11 10:02:48;;;;;;;1.00;0.90;;;;;;;3.22;100.00;96118.22;5074515;28;20212;-83
2021/12/11 10:05:29;;;;;;;1.00;0.80;;;;;;;3.22;100.00;96127.03;5057913;28;20288;-84
2021/12/11 10:08:24;;;;;;;0.70;0.70;;;;;;;3.21;100.00;96114.72;5065589;28;20223;-83
2021/12/11 10:10:53;;;;;;;2.13;0.70;;;;;;;3.27;100.00;96129.13;5058916;28;20214;-83
2021/12/11 10:13:21;;;;;;;1.20;1.10;;;;;;;3.29;100.00;96129.78;5060948;28;20201;-81
2021/12/11 10:15:50;;;;;;;0.80;0.60;;;;;;;3.32;100.00;96134.72;5056901;28;20233;-84
2021/12/11 10:18:20;;;;;;;0.63;0.63;;;;;;;3.32;100.00;96122.19;5064217;28;20206;-84
2021/12/11 10:21:00;;;;;;;0.60;0.60;;;;;;;3.46;100.00;96144.50;5067601;28;20254;-83
2021/12/11 10:23:31;;;;;;;0.70;0.70;;;;;;;3.48;100.00;96145.16;5065497;28;20206;-84
2021/12/11 10:26:01;;;;;;;0.60;0.60;;;;;;;3.50;100.00;96139.59;5066526;28;20201;-84
2021/12/11 10:28:30;;;;;;;0.87;0.60;;;;;;;3.42;100.00;96140.56;5061650;28;20236;-84
2021/12/11 10:31:01;;;;;;;0.63;0.63;;;;;;;3.42;100.00;96154.72;5066540;28;20201;-84
2021/12/11 10:33:31;;;;;;;0.80;0.80;;;;;;;3.39;100.00;96152.47;5062706;28;20295;-84
2021/12/11 10:36:02;;;;;;;1.30;0.80;;;;;;;3.40;100.00;96145.28;5057509;28;20193;-84
2021/12/11 10:38:30;;;;;;;1.80;0.93;;;;;;;3.37;100.00;96149.16;5063427;28;20193;-83
2021/12/11 10:41:00;;;;;;;1.80;1.40;;;;;;;3.40;100.00;96140.75;5055269;28;20193;-87
2021/12/11 10:43:31;;;;;;;1.40;0.90;;;;;;;3.40;100.00;96150.63;5068831;28;20197;-86
2021/12/11 10:46:02;;;;;;;0.60;0.60;;;;;;;3.38;100.00;96155.31;5062159;28;20232;-84
2021/12/11 10:48:33;;;;;;;1.57;0.87;;;;;;;3.44;100.00;96154.53;5061918;28;20230;-83
2021/12/11 10:51:06;;;;;;;1.00;0.90;;;;;;;3.45;100.00;96161.53;5068087;28;20208;-83
2021/12/11 10:53:35;;;;;;;2.00;1.00;;;;;;;3.46;100.00;96157.84;5061655;28;20205;-84
2021/12/11 10:56:06;;;;;;;0.70;0.70;;;;;;;3.46;100.00;96160.53;5055989;28;20267;-85
2021/12/11 10:58:37;;;;;;;1.90;1.10;;;;;;;3.49;100.00;96165.47;5055903;28;20232;-82
2021/12/11 11:01:10;;;;;;;1.63;0.97;;;;;;;3.44;100.00;96167.88;5063921;28;20209;-83
2021/12/11 11:03:42;;;;;;;1.47;1.10;;;;;;;3.45;100.00;96164.22;5064225;28;20220;-89
2021/12/11 11:06:10;;;;;;;1.97;0.90;;;;;;;3.47;100.00;96172.84;5061753;28;20324;-84
2021/12/11 11:08:37;;;;;;;0.90;0.90;;;;;;;3.57;100.00;96172.53;5062929;28;20216;-86
2021/12/11 11:11:09;;;;;;;1.37;0.83;;;;;;;3.51;100.00;96166.09;5064771;28;20209;-81
2021/12/11 11:13:36;;;;;;;1.20;1.00;;;;;;;3.59;100.00;96175.81;5057266;28;20215;-82
2021/12/11 11:16:06;;;;;;;1.53;0.90;;;;;;;3.61;100.00;96179.97;5059906;28;20205;-82
2021/12/11 11:18:33;;;;;;;1.10;1.00;;;;;;;3.61;100.00;96182.63;5064536;28;20208;-81
2021/12/11 11:21:04;;;;;;;3.33;1.60;;;;;;;3.62;100.00;96181.63;5055803;28;20204;-82
2021/12/11 11:23:31;;;;;;;4.97;1.33;;;;;;;3.65;100.00;96191.94;5065687;28;20204;-82
2021/12/11 11:26:05;;;;;;;2.23;1.00;;;;;;;3.66;100.00;96193.56;5065113;28;20261;-81
2021/12/11 11:28:34;;;;;;;1.27;0.90;;;;;;;3.64;100.00;96192.13;5051776;28;20249;-82
2021/12/11 11:31:04;;;;;;;0.80;0.80;;;;;;;3.68;100.00;96196.03;5062599;28;20217;-81
2021/12/11 11:33:33;;;;;;;1.10;1.00;;;;;;;3.82;100.00;96207.69;5068762;28;20227;-81
2021/12/11 11:36:03;;;;;;;0.80;0.80;;;;;;;3.80;100.00;96206.03;5063742;28;20222;-81
2021/12/11 11:38:37;;;;;;;1.63;0.90;;;;;;;3.79;100.00;96204.38;5055240;28;20205;-82
2021/12/11 11:41:07;;;;;;;0.60;0.60;;;;;;;3.97;100.00;96233.31;5051680;28;20442;-82
2021/12/11 11:43:36;;;;;;;0.60;0.60;;;;;;;3.98;100.00;96228.78;5060807;28;20294;-81
2021/12/11 11:46:04;;;;;;;0.97;0.80;;;;;;;3.98;100.00;96228.78;5054595;28;20212;-81
2021/12/11 11:48:39;;;;;;;1.30;0.87;;;;;;;4.06;100.00;96223.31;5084093;28;20227;-81
2021/12/11 11:51:10;;;;;;;0.60;0.60;;;;;;;4.03;100.00;96242.41;5057776;28;20215;-80